sensor_id;sensor_type;location;lat;lon;timestamp;pressure;altitude;pressure_sealevel;temperature;humidity
38400;BME280;24180;42.676;23.320;2024-03-02T00:00:51;94404.22;;;7.23;77.28
38400;BME280;24180;42.676;23.320;2024-03-02T00:03:17;94402.72;;;7.22;76.90
38400;BME280;24180;42.676;23.320;2024-03-02T00:05:43;94439.69;;;7.38;77.10
38400;BME280;24180;42.676;23.320;2024-03-02T00:08:09;94394.16;;;7.18;76.74
38400;BME280;24180;42.676;23.320;2024-03-02T00:10:38;94424.75;;;7.32;77.10
38400;BME280;24180;42.676;23.320;2024-03-02T00:13:10;94434.22;;;7.40;76.93
38400;BME280;24180;42.676;23.320;2024-03-02T00:18:11;94422.34;;;7.27;77.19
38400;BME280;24180;42.676;23.320;2024-03-02T00:20:38;94414.63;;;7.27;76.80
38400;BME280;24180;42.676;23.320;2024-03-02T00:23:08;94424.94;;;7.27;77.28
38400;BME280;24180;42.676;23.320;2024-03-02T00:25:44;94402.59;;;7.18;77.01
38400;BME280;24180;42.676;23.320;2024-03-02T00:28:20;94427.94;;;7.29;76.65
38400;BME280;24180;42.676;23.320;2024-03-02T00:33:20;94389.69;;;7.06;77.65
38400;BME280;24180;42.676;23.320;2024-03-02T00:35:46;94434.28;;;7.31;77.99
38400;BME280;24180;42.676;23.320;2024-03-02T00:38:11;94418.97;;;7.35;77.22
38400;BME280;24180;42.676;23.320;2024-03-02T00:40:38;94403.94;;;7.25;77.40
38400;BME280;24180;42.676;23.320;2024-03-02T00:43:03;94414.59;;;7.35;77.67
38400;BME280;24180;42.676;23.320;2024-03-02T00:45:29;94404.34;;;7.27;77.47
38400;BME280;24180;42.676;23.320;2024-03-02T00:47:55;94425.16;;;7.34;77.65
38400;BME280;24180;42.676;23.320;2024-03-02T00:50:21;94406.00;;;7.31;76.54
38400;BME280;24180;42.676;23.320;2024-03-02T00:52:46;94398.00;;;7.24;77.59
38400;BME280;24180;42.676;23.320;2024-03-02T00:55:14;94395.84;;;7.35;76.59
38400;BME280;24180;42.676;23.320;2024-03-02T00:57:39;94412.13;;;7.39;76.10
38400;BME280;24180;42.676;23.320;2024-03-02T01:00:06;94409.25;;;7.40;76.56
38400;BME280;24180;42.676;23.320;2024-03-02T01:02:35;94400.03;;;7.39;76.66
38400;BME280;24180;42.676;23.320;2024-03-02T01:05:00;94404.66;;;7.46;76.47
38400;BME280;24180;42.676;23.320;2024-03-02T01:07:26;94396.06;;;7.42;76.43
38400;BME280;24180;42.676;23.320;2024-03-02T01:09:51;94392.00;;;7.41;75.73
38400;BME280;24180;42.676;23.320;2024-03-02T01:12:17;94424.38;;;7.63;76.22
38400;BME280;24180;42.676;23.320;2024-03-02T01:14:42;94382.03;;;7.39;76.51
38400;BME280;24180;42.676;23.320;2024-03-02T01:17:08;94398.09;;;7.57;75.79
38400;BME280;24180;42.676;23.320;2024-03-02T01:19:33;94385.84;;;7.54;75.81
38400;BME280;24180;42.676;23.320;2024-03-02T01:21:59;94365.22;;;7.42;75.23
38400;BME280;24180;42.676;23.320;2024-03-02T01:24:24;94357.94;;;7.44;76.17
38400;BME280;24180;42.676;23.320;2024-03-02T01:26:50;94376.00;;;7.56;75.87
38400;BME280;24180;42.676;23.320;2024-03-02T01:29:16;94391.16;;;7.70;76.08
38400;BME280;24180;42.676;23.320;2024-03-02T01:31:41;94378.59;;;7.68;76.23
38400;BME280;24180;42.676;23.320;2024-03-02T01:34:08;94368.41;;;7.60;75.62
38400;BME280;24180;42.676;23.320;2024-03-02T01:36:33;94368.13;;;7.53;76.09
38400;BME280;24180;42.676;23.320;2024-03-02T01:38:59;94369.03;;;7.57;76.10
38400;BME280;24180;42.676;23.320;2024-03-02T01:41:25;94369.34;;;7.55;76.41
38400;BME280;24180;42.676;23.320;2024-03-02T01:43:50;94369.22;;;7.52;76.35
38400;BME280;24180;42.676;23.320;2024-03-02T01:46:16;94381.91;;;7.57;76.95
38400;BME280;24180;42.676;23.320;2024-03-02T01:48:41;94379.50;;;7.52;77.86
38400;BME280;24180;42.676;23.320;2024-03-02T01:51:07;94351.38;;;7.34;76.98
38400;BME280;24180;42.676;23.320;2024-03-02T01:53:34;94376.94;;;7.52;77.80
38400;BME280;24180;42.676;23.320;2024-03-02T01:55:59;94331.03;;;7.20;77.89
38400;BME280;24180;42.676;23.320;2024-03-02T01:58:26;94366.75;;;7.55;78.19
38400;BME280;24180;42.676;23.320;2024-03-02T02:00:52;94355.38;;;7.44;78.80
38400;BME280;24180;42.676;23.320;2024-03-02T02:03:18;94355.56;;;7.39;78.30
38400;BME280;24180;42.676;23.320;2024-03-02T02:05:43;94385.53;;;7.56;78.67
38400;BME280;24180;42.676;23.320;2024-03-02T02:08:09;94366.81;;;7.46;78.04
38400;BME280;24180;42.676;23.320;2024-03-02T02:10:34;94379.31;;;7.57;78.34
38400;BME280;24180;42.676;23.320;2024-03-02T02:13:00;94371.72;;;7.60;78.57
38400;BME280;24180;42.676;23.320;2024-03-02T02:17:52;94344.81;;;7.37;78.60
38400;BME280;24180;42.676;23.320;2024-03-02T02:20:17;94357.56;;;7.33;78.71
38400;BME280;24180;42.676;23.320;2024-03-02T02:25:21;94343.19;;;7.11;79.42
38400;BME280;24180;42.676;23.320;2024-03-02T02:27:47;94355.63;;;7.09;79.68
38400;BME280;24180;42.676;23.320;2024-03-02T02:30:12;94381.28;;;7.18;79.87
38400;BME280;24180;42.676;23.320;2024-03-02T02:32:38;94370.94;;;7.06;79.20
38400;BME280;24180;42.676;23.320;2024-03-02T02:35:04;94386.47;;;7.30;79.45
38400;BME280;24180;42.676;23.320;2024-03-02T02:37:30;94358.00;;;7.14;79.10
38400;BME280;24180;42.676;23.320;2024-03-02T02:39:56;94365.53;;;7.19;79.03
38400;BME280;24180;42.676;23.320;2024-03-02T02:42:21;94362.50;;;7.17;78.69
38400;BME280;24180;42.676;23.320;2024-03-02T02:44:47;94374.50;;;7.34;78.81
38400;BME280;24180;42.676;23.320;2024-03-02T02:47:12;94358.97;;;7.31;78.65
38400;BME280;24180;42.676;23.320;2024-03-02T02:49:37;94361.38;;;7.27;78.93
38400;BME280;24180;42.676;23.320;2024-03-02T02:52:03;94385.16;;;7.45;79.26
38400;BME280;24180;42.676;23.320;2024-03-02T02:54:29;94376.50;;;7.50;78.40
38400;BME280;24180;42.676;23.320;2024-03-02T02:56:54;94370.97;;;7.39;79.27
38400;BME280;24180;42.676;23.320;2024-03-02T02:59:19;94373.56;;;7.39;78.15
38400;BME280;24180;42.676;23.320;2024-03-02T03:01:45;94383.91;;;7.51;78.73
38400;BME280;24180;42.676;23.320;2024-03-02T03:04:10;94379.56;;;7.43;78.49
38400;BME280;24180;42.676;23.320;2024-03-02T03:06:36;94365.84;;;7.39;78.69
38400;BME280;24180;42.676;23.320;2024-03-02T03:09:01;94384.66;;;7.52;78.22
38400;BME280;24180;42.676;23.320;2024-03-02T03:11:27;94391.00;;;7.54;78.58
38400;BME280;24180;42.676;23.320;2024-03-02T03:13:53;94361.44;;;7.39;78.91
38400;BME280;24180;42.676;23.320;2024-03-02T03:16:19;94328.34;;;7.17;79.15
38400;BME280;24180;42.676;23.320;2024-03-02T03:18:45;94383.78;;;7.48;79.41
38400;BME280;24180;42.676;23.320;2024-03-02T03:21:10;94379.38;;;7.48;79.17
38400;BME280;24180;42.676;23.320;2024-03-02T03:23:36;94378.75;;;7.51;79.53
38400;BME280;24180;42.676;23.320;2024-03-02T03:26:01;94380.00;;;7.45;78.93
38400;BME280;24180;42.676;23.320;2024-03-02T03:28:27;94379.53;;;7.31;80.19
38400;BME280;24180;42.676;23.320;2024-03-02T03:30:52;94369.94;;;7.19;80.22
38400;BME280;24180;42.676;23.320;2024-03-02T03:33:18;94371.44;;;7.20;80.40
38400;BME280;24180;42.676;23.320;2024-03-02T03:35:43;94382.66;;;7.36;79.89
38400;BME280;24180;42.676;23.320;2024-03-02T03:38:10;94367.41;;;7.10;81.25
38400;BME280;24180;42.676;23.320;2024-03-02T03:40:35;94386.19;;;7.32;80.16
38400;BME280;24180;42.676;23.320;2024-03-02T03:43:01;94388.53;;;7.37;79.88
38400;BME280;24180;42.676;23.320;2024-03-02T03:45:26;94387.03;;;7.36;80.87
38400;BME280;24180;42.676;23.320;2024-03-02T03:47:53;94384.91;;;7.38;81.12
38400;BME280;24180;42.676;23.320;2024-03-02T03:50:18;94339.34;;;7.05;80.87
38400;BME280;24180;42.676;23.320;2024-03-02T03:52:45;94373.94;;;7.29;80.11
38400;BME280;24180;42.676;23.320;2024-03-02T03:55:10;94388.81;;;7.44;80.06
38400;BME280;24180;42.676;23.320;2024-03-02T03:57:35;94366.72;;;7.43;79.08
38400;BME280;24180;42.676;23.320;2024-03-02T04:00:01;94387.03;;;7.36;80.26
38400;BME280;24180;42.676;23.320;2024-03-02T04:02:26;94358.63;;;7.11;81.13
38400;BME280;24180;42.676;23.320;2024-03-02T04:04:52;94339.81;;;6.98;80.82
38400;BME280;24180;42.676;23.320;2024-03-02T04:07:17;94362.09;;;7.15;80.56
38400;BME280;24180;42.676;23.320;2024-03-02T04:09:43;94366.50;;;7.15;81.56
38400;BME280;24180;42.676;23.320;2024-03-02T04:12:08;94379.13;;;7.20;80.98
38400;BME280;24180;42.676;23.320;2024-03-02T04:14:34;94383.97;;;7.21;81.44
38400;BME280;24180;42.676;23.320;2024-03-02T04:16:59;94378.94;;;7.04;82.52
38400;BME280;24180;42.676;23.320;2024-03-02T04:19:25;94346.44;;;6.79;83.25
38400;BME280;24180;42.676;23.320;2024-03-02T04:21:50;94378.91;;;7.13;82.98
38400;BME280;24180;42.676;23.320;2024-03-02T04:24:16;94364.66;;;7.15;82.33
38400;BME280;24180;42.676;23.320;2024-03-02T04:26:41;94377.00;;;7.01;82.85
38400;BME280;24180;42.676;23.320;2024-03-02T04:29:07;94370.47;;;7.04;82.35
38400;BME280;24180;42.676;23.320;2024-03-02T04:31:33;94381.00;;;7.11;82.13
38400;BME280;24180;42.676;23.320;2024-03-02T04:33:58;94386.56;;;7.21;81.91
38400;BME280;24180;42.676;23.320;2024-03-02T04:36:24;94386.47;;;7.09;81.80
38400;BME280;24180;42.676;23.320;2024-03-02T04:38:49;94386.56;;;7.21;82.18
38400;BME280;24180;42.676;23.320;2024-03-02T04:41:14;94393.44;;;7.30;81.92
38400;BME280;24180;42.676;23.320;2024-03-02T04:43:40;94358.69;;;7.03;81.50
38400;BME280;24180;42.676;23.320;2024-03-02T04:46:07;94388.69;;;7.19;82.30
38400;BME280;24180;42.676;23.320;2024-03-02T04:48:33;94377.66;;;7.19;81.88
38400;BME280;24180;42.676;23.320;2024-03-02T04:50:58;94397.44;;;7.39;81.09
38400;BME280;24180;42.676;23.320;2024-03-02T04:53:24;94390.88;;;7.30;81.80
38400;BME280;24180;42.676;23.320;2024-03-02T04:55:49;94394.63;;;7.32;82.90
38400;BME280;24180;42.676;23.320;2024-03-02T04:58:21;94379.13;;;7.20;82.45
38400;BME280;24180;42.676;23.320;2024-03-02T05:00:46;94396.59;;;7.35;83.22
38400;BME280;24180;42.676;23.320;2024-03-02T05:03:12;94400.84;;;7.31;83.74
38400;BME280;24180;42.676;23.320;2024-03-02T05:05:38;94384.72;;;7.01;85.76
38400;BME280;24180;42.676;23.320;2024-03-02T05:08:04;94385.88;;;6.83;88.74
38400;BME280;24180;42.676;23.320;2024-03-02T05:10:29;94380.31;;;6.81;89.63
38400;BME280;24180;42.676;23.320;2024-03-02T05:12:55;94380.31;;;6.81;90.09
38400;BME280;24180;42.676;23.320;2024-03-02T05:15:25;94406.41;;;6.83;89.58
38400;BME280;24180;42.676;23.320;2024-03-02T05:17:50;94405.88;;;6.77;90.58
38400;BME280;24180;42.676;23.320;2024-03-02T05:20:16;94408.34;;;6.65;91.74
38400;BME280;24180;42.676;23.320;2024-03-02T05:22:42;94395.16;;;6.37;91.05
38400;BME280;24180;42.676;23.320;2024-03-02T05:25:08;94426.09;;;6.40;92.98
38400;BME280;24180;42.676;23.320;2024-03-02T05:27:35;94415.06;;;6.48;94.11
38400;BME280;24180;42.676;23.320;2024-03-02T05:30:00;94425.34;;;6.40;94.23
38400;BME280;24180;42.676;23.320;2024-03-02T05:32:26;94427.31;;;6.43;93.65
38400;BME280;24180;42.676;23.320;2024-03-02T05:34:52;94425.22;;;6.36;94.44
38400;BME280;24180;42.676;23.320;2024-03-02T05:37:17;94430.34;;;6.36;95.23
38400;BME280;24180;42.676;23.320;2024-03-02T05:39:43;94433.22;;;6.35;95.50
38400;BME280;24180;42.676;23.320;2024-03-02T05:42:09;94433.53;;;6.24;96.26
38400;BME280;24180;42.676;23.320;2024-03-02T05:44:36;94408.66;;;6.16;96.69
38400;BME280;24180;42.676;23.320;2024-03-02T05:47:01;94431.56;;;6.30;95.73
38400;BME280;24180;42.676;23.320;2024-03-02T05:49:27;94434.00;;;6.26;96.38
38400;BME280;24180;42.676;23.320;2024-03-02T05:51:52;94436.09;;;6.33;95.83
38400;BME280;24180;42.676;23.320;2024-03-02T05:54:18;94431.91;;;6.20;95.97
38400;BME280;24180;42.676;23.320;2024-03-02T05:56:43;94438.06;;;6.27;96.20
38400;BME280;24180;42.676;23.320;2024-03-02T05:59:09;94444.41;;;6.30;95.98
38400;BME280;24180;42.676;23.320;2024-03-02T06:01:47;94419.09;;;6.11;97.52
38400;BME280;24180;42.676;23.320;2024-03-02T06:04:13;94422.72;;;6.10;97.37
38400;BME280;24180;42.676;23.320;2024-03-02T06:06:39;94435.81;;;6.26;98.08
38400;BME280;24180;42.676;23.320;2024-03-02T06:09:06;94443.31;;;6.40;97.72
38400;BME280;24180;42.676;23.320;2024-03-02T06:11:40;94438.44;;;6.56;98.58
38400;BME280;24180;42.676;23.320;2024-03-02T06:14:07;94436.00;;;6.59;99.09
38400;BME280;24180;42.676;23.320;2024-03-02T06:16:32;94440.06;;;6.60;99.00
38400;BME280;24180;42.676;23.320;2024-03-02T06:18:58;94437.66;;;6.64;98.79
38400;BME280;24180;42.676;23.320;2024-03-02T06:21:24;94425.44;;;6.61;98.76
38400;BME280;24180;42.676;23.320;2024-03-02T06:23:49;94445.50;;;6.67;98.58
38400;BME280;24180;42.676;23.320;2024-03-02T06:26:15;94435.19;;;6.76;98.76
38400;BME280;24180;42.676;23.320;2024-03-02T06:28:41;94425.56;;;6.64;99.20
38400;BME280;24180;42.676;23.320;2024-03-02T06:31:06;94437.00;;;6.75;98.80
38400;BME280;24180;42.676;23.320;2024-03-02T06:33:32;94423.91;;;6.60;98.63
38400;BME280;24180;42.676;23.320;2024-03-02T06:35:57;94435.53;;;6.66;98.20
38400;BME280;24180;42.676;23.320;2024-03-02T06:38:23;94446.22;;;6.77;98.78
38400;BME280;24180;42.676;23.320;2024-03-02T06:40:48;94445.91;;;6.78;98.79
38400;BME280;24180;42.676;23.320;2024-03-02T06:43:14;94451.00;;;6.87;98.87
38400;BME280;24180;42.676;23.320;2024-03-02T06:45:39;94458.47;;;6.80;97.93
38400;BME280;24180;42.676;23.320;2024-03-02T06:48:05;94463.53;;;6.88;97.72
38400;BME280;24180;42.676;23.320;2024-03-02T06:50:30;94421.19;;;6.65;97.20
38400;BME280;24180;42.676;23.320;2024-03-02T06:52:56;94459.31;;;6.92;98.06
38400;BME280;24180;42.676;23.320;2024-03-02T06:55:22;94427.53;;;6.67;97.91
38400;BME280;24180;42.676;23.320;2024-03-02T06:57:49;94445.69;;;6.92;98.14
38400;BME280;24180;42.676;23.320;2024-03-02T07:00:15;94441.78;;;6.86;98.13
38400;BME280;24180;42.676;23.320;2024-03-02T07:02:43;94459.00;;;6.94;97.74
38400;BME280;24180;42.676;23.320;2024-03-02T07:05:08;94452.78;;;6.95;98.08
38400;BME280;24180;42.676;23.320;2024-03-02T07:07:34;94453.97;;;6.97;97.95
38400;BME280;24180;42.676;23.320;2024-03-02T07:10:00;94455.66;;;6.93;97.79
38400;BME280;24180;42.676;23.320;2024-03-02T07:12:26;94450.78;;;7.01;97.81
38400;BME280;24180;42.676;23.320;2024-03-02T07:14:52;94446.00;;;6.90;96.95
38400;BME280;24180;42.676;23.320;2024-03-02T07:17:32;94470.59;;;7.00;97.06
38400;BME280;24180;42.676;23.320;2024-03-02T07:19:58;94474.69;;;7.01;96.91
38400;BME280;24180;42.676;23.320;2024-03-02T07:22:23;94478.06;;;6.93;96.80
38400;BME280;24180;42.676;23.320;2024-03-02T07:24:49;94466.59;;;6.82;96.58
38400;BME280;24180;42.676;23.320;2024-03-02T07:27:16;94467.44;;;6.94;96.81
38400;BME280;24180;42.676;23.320;2024-03-02T07:29:42;94472.63;;;6.86;96.17
38400;BME280;24180;42.676;23.320;2024-03-02T07:32:08;94478.81;;;6.93;96.58
38400;BME280;24180;42.676;23.320;2024-03-02T07:34:34;94473.34;;;6.95;96.95
38400;BME280;24180;42.676;23.320;2024-03-02T07:37:00;94469.72;;;6.96;96.99
38400;BME280;24180;42.676;23.320;2024-03-02T07:39:26;94483.59;;;7.04;96.69
38400;BME280;24180;42.676;23.320;2024-03-02T07:41:51;94475.28;;;6.98;96.76
38400;BME280;24180;42.676;23.320;2024-03-02T07:44:17;94484.53;;;6.99;95.30
38400;BME280;24180;42.676;23.320;2024-03-02T07:46:45;94482.00;;;6.90;95.00
38400;BME280;24180;42.676;23.320;2024-03-02T07:49:17;94488.19;;;6.89;94.64
38400;BME280;24180;42.676;23.320;2024-03-02T07:51:44;94478.56;;;6.78;95.25
38400;BME280;24180;42.676;23.320;2024-03-02T07:54:09;94479.31;;;6.78;95.11
38400;BME280;24180;42.676;23.320;2024-03-02T07:56:35;94473.09;;;6.79;95.65
38400;BME280;24180;42.676;23.320;2024-03-02T07:59:02;94467.66;;;6.81;95.79
38400;BME280;24180;42.676;23.320;2024-03-02T08:01:31;94494.50;;;7.01;95.60
38400;BME280;24180;42.676;23.320;2024-03-02T08:04:00;94481.50;;;6.97;96.36
38400;BME280;24180;42.676;23.320;2024-03-02T08:06:28;94496.78;;;7.23;96.20
38400;BME280;24180;42.676;23.320;2024-03-02T08:08:54;94502.69;;;7.23;95.97
38400;BME280;24180;42.676;23.320;2024-03-02T08:11:20;94486.88;;;7.13;95.46
38400;BME280;24180;42.676;23.320;2024-03-02T08:13:46;94502.69;;;7.23;95.11
38400;BME280;24180;42.676;23.320;2024-03-02T08:16:11;94502.66;;;7.32;94.62
38400;BME280;24180;42.676;23.320;2024-03-02T08:18:37;94496.84;;;7.44;95.01
38400;BME280;24180;42.676;23.320;2024-03-02T08:21:03;94497.72;;;7.48;95.61
38400;BME280;24180;42.676;23.320;2024-03-02T08:23:28;94484.78;;;7.36;95.01
38400;BME280;24180;42.676;23.320;2024-03-02T08:25:54;94498.59;;;7.52;94.68
38400;BME280;24180;42.676;23.320;2024-03-02T08:28:19;94494.28;;;7.44;93.70
38400;BME280;24180;42.676;23.320;2024-03-02T08:30:45;94497.09;;;7.51;93.18
38400;BME280;24180;42.676;23.320;2024-03-02T08:33:10;94490.13;;;7.52;93.06
38400;BME280;24180;42.676;23.320;2024-03-02T08:35:36;94485.56;;;7.57;92.63
38400;BME280;24180;42.676;23.320;2024-03-02T08:38:04;94458.81;;;7.50;92.76
38400;BME280;24180;42.676;23.320;2024-03-02T08:40:30;94489.94;;;7.78;92.08
38400;BME280;24180;42.676;23.320;2024-03-02T08:42:56;94478.38;;;7.84;92.21
38400;BME280;24180;42.676;23.320;2024-03-02T08:45:21;94461.84;;;7.73;91.38
38400;BME280;24180;42.676;23.320;2024-03-02T08:47:48;94503.69;;;8.03;90.02
38400;BME280;24180;42.676;23.320;2024-03-02T08:50:13;94492.56;;;8.11;88.90
38400;BME280;24180;42.676;23.320;2024-03-02T08:52:57;94490.03;;;8.23;90.87
38400;BME280;24180;42.676;23.320;2024-03-02T08:55:22;94501.44;;;8.34;89.06
38400;BME280;24180;42.676;23.320;2024-03-02T08:57:48;94497.19;;;8.38;89.04
38400;BME280;24180;42.676;23.320;2024-03-02T09:00:16;94499.47;;;8.65;88.47
38400;BME280;24180;42.676;23.320;2024-03-02T09:02:43;94501.44;;;8.80;87.09
38400;BME280;24180;42.676;23.320;2024-03-02T09:05:09;94465.78;;;8.82;88.51
38400;BME280;24180;42.676;23.320;2024-03-02T09:07:35;94502.22;;;9.29;85.60
38400;BME280;24180;42.676;23.320;2024-03-02T09:10:00;94489.88;;;9.23;84.48
38400;BME280;24180;42.676;23.320;2024-03-02T09:12:26;94501.13;;;9.43;83.22
38400;BME280;24180;42.676;23.320;2024-03-02T09:14:51;94491.34;;;9.36;81.58
38400;BME280;24180;42.676;23.320;2024-03-02T09:17:17;94492.22;;;9.40;80.34
38400;BME280;24180;42.676;23.320;2024-03-02T09:19:42;94512.53;;;9.54;83.57
38400;BME280;24180;42.676;23.320;2024-03-02T09:22:08;94512.72;;;9.61;77.79
38400;BME280;24180;42.676;23.320;2024-03-02T09:24:34;94496.59;;;9.52;81.73
38400;BME280;24180;42.676;23.320;2024-03-02T09:27:00;94516.44;;;9.76;80.27
38400;BME280;24180;42.676;23.320;2024-03-02T09:29:26;94490.59;;;9.48;77.74
38400;BME280;24180;42.676;23.320;2024-03-02T09:31:51;94483.63;;;9.12;80.58
38400;BME280;24180;42.676;23.320;2024-03-02T09:34:17;94512.31;;;9.47;80.99
38400;BME280;24180;42.676;23.320;2024-03-02T09:36:43;94514.38;;;9.29;81.24
38400;BME280;24180;42.676;23.320;2024-03-02T09:39:09;94482.78;;;9.20;79.86
38400;BME280;24180;42.676;23.320;2024-03-02T09:41:37;94521.44;;;9.44;80.01
38400;BME280;24180;42.676;23.320;2024-03-02T09:44:04;94506.19;;;9.39;78.75
38400;BME280;24180;42.676;23.320;2024-03-02T09:46:30;94486.41;;;9.19;78.93
38400;BME280;24180;42.676;23.320;2024-03-02T09:48:55;94519.28;;;9.46;79.36
38400;BME280;24180;42.676;23.320;2024-03-02T09:51:21;94517.56;;;9.50;79.22
38400;BME280;24180;42.676;23.320;2024-03-02T09:53:47;94522.97;;;9.33;79.50
38400;BME280;24180;42.676;23.320;2024-03-02T09:56:13;94507.50;;;9.21;79.61
38400;BME280;24180;42.676;23.320;2024-03-02T09:58:41;94520.38;;;9.21;80.15
38400;BME280;24180;42.676;23.320;2024-03-02T10:01:07;94531.56;;;9.13;79.88
38400;BME280;24180;42.676;23.320;2024-03-02T10:03:33;94509.09;;;9.01;80.32
38400;BME280;24180;42.676;23.320;2024-03-02T10:08:43;94516.50;;;9.02;81.87
38400;BME280;24180;42.676;23.320;2024-03-02T10:11:09;94522.19;;;8.83;81.43
38400;BME280;24180;42.676;23.320;2024-03-02T10:13:34;94510.03;;;8.72;81.91
38400;BME280;24180;42.676;23.320;2024-03-02T10:16:11;94509.28;;;8.71;80.81
38400;BME280;24180;42.676;23.320;2024-03-02T10:18:37;94515.31;;;8.88;82.27
38400;BME280;24180;42.676;23.320;2024-03-02T10:21:14;94527.03;;;8.85;80.84
38400;BME280;24180;42.676;23.320;2024-03-02T10:23:40;94500.59;;;8.76;80.10
38400;BME280;24180;42.676;23.320;2024-03-02T10:26:26;94520.91;;;8.90;81.40
38400;BME280;24180;42.676;23.320;2024-03-02T10:28:51;94519.75;;;8.87;81.86
38400;BME280;24180;42.676;23.320;2024-03-02T10:31:25;94515.63;;;8.86;81.92
38400;BME280;24180;42.676;23.320;2024-03-02T10:33:54;94524.34;;;8.81;82.39
38400;BME280;24180;42.676;23.320;2024-03-02T10:36:20;94503.81;;;8.73;82.38
38400;BME280;24180;42.676;23.320;2024-03-02T10:38:46;94520.56;;;8.79;82.55
38400;BME280;24180;42.676;23.320;2024-03-02T10:41:23;94521.53;;;8.74;81.51
38400;BME280;24180;42.676;23.320;2024-03-02T10:43:51;94517.44;;;8.73;82.74
38400;BME280;24180;42.676;23.320;2024-03-02T10:46:19;94514.56;;;8.75;81.70
38400;BME280;24180;42.676;23.320;2024-03-02T10:48:46;94493.94;;;8.75;83.68
38400;BME280;24180;42.676;23.320;2024-03-02T10:51:12;94496.94;;;8.77;83.13
38400;BME280;24180;42.676;23.320;2024-03-02T10:53:37;94492.19;;;8.67;82.25
38400;BME280;24180;42.676;23.320;2024-03-02T10:56:05;94494.88;;;8.70;82.94
38400;BME280;24180;42.676;23.320;2024-03-02T10:58:33;94492.19;;;8.67;81.21
38400;BME280;24180;42.676;23.320;2024-03-02T11:01:03;94486.72;;;8.68;82.01
38400;BME280;24180;42.676;23.320;2024-03-02T11:03:35;94488.66;;;8.59;82.76
38400;BME280;24180;42.676;23.320;2024-03-02T11:06:06;94495.31;;;8.72;82.18
38400;BME280;24180;42.676;23.320;2024-03-02T11:08:33;94487.16;;;8.70;82.84
38400;BME280;24180;42.676;23.320;2024-03-02T11:11:06;94504.34;;;8.78;82.33
38400;BME280;24180;42.676;23.320;2024-03-02T11:13:33;94493.06;;;8.71;81.49
38400;BME280;24180;42.676;23.320;2024-03-02T11:16:03;94486.84;;;8.72;82.39
38400;BME280;24180;42.676;23.320;2024-03-02T11:18:31;94481.59;;;8.68;83.47
38400;BME280;24180;42.676;23.320;2024-03-02T11:20:58;94476.97;;;8.61;82.52
38400;BME280;24180;42.676;23.320;2024-03-02T11:23:34;94498.31;;;8.62;83.44
38400;BME280;24180;42.676;23.320;2024-03-02T11:26:19;94501.94;;;8.61;83.38
38400;BME280;24180;42.676;23.320;2024-03-02T11:28:46;94490.91;;;8.60;82.88
38400;BME280;24180;42.676;23.320;2024-03-02T11:31:11;94494.56;;;8.59;83.07
38400;BME280;24180;42.676;23.320;2024-03-02T11:33:37;94488.22;;;8.57;83.85
38400;BME280;24180;42.676;23.320;2024-03-02T11:36:03;94486.28;;;8.66;82.61
38400;BME280;24180;42.676;23.320;2024-03-02T11:38:30;94491.13;;;8.80;83.05
38400;BME280;24180;42.676;23.320;2024-03-02T11:40:59;94456.84;;;8.55;82.49
38400;BME280;24180;42.676;23.320;2024-03-02T11:43:27;94471.69;;;8.70;82.45
38400;BME280;24180;42.676;23.320;2024-03-02T11:46:04;94471.81;;;8.61;81.89
38400;BME280;24180;42.676;23.320;2024-03-02T11:48:32;94487.91;;;8.83;82.05
38400;BME280;24180;42.676;23.320;2024-03-02T11:51:00;94495.13;;;8.90;82.26
38400;BME280;24180;42.676;23.320;2024-03-02T11:53:27;94496.41;;;8.83;82.72
38400;BME280;24180;42.676;23.320;2024-03-02T11:55:55;94496.28;;;8.80;82.96
38400;BME280;24180;42.676;23.320;2024-03-02T11:58:21;94477.59;;;8.71;83.70
38400;BME280;24180;42.676;23.320;2024-03-02T12:00:52;94488.66;;;8.83;82.68
38400;BME280;24180;42.676;23.320;2024-03-02T12:03:21;94457.09;;;8.62;83.64
38400;BME280;24180;42.676;23.320;2024-03-02T12:05:52;94491.16;;;8.92;82.59
38400;BME280;24180;42.676;23.320;2024-03-02T12:08:18;94491.06;;;9.01;82.32
38400;BME280;24180;42.676;23.320;2024-03-02T12:10:56;94494.59;;;8.96;82.20
38400;BME280;24180;42.676;23.320;2024-03-02T12:13:22;94499.09;;;8.99;82.15
38400;BME280;24180;42.676;23.320;2024-03-02T12:15:47;94488.69;;;8.96;80.81
38400;BME280;24180;42.676;23.320;2024-03-02T12:18:13;94488.13;;;8.90;82.42
38400;BME280;24180;42.676;23.320;2024-03-02T12:20:38;94487.06;;;8.91;81.42
38400;BME280;24180;42.676;23.320;2024-03-02T12:23:04;94492.53;;;9.02;82.67
38400;BME280;24180;42.676;23.320;2024-03-02T12:25:31;94490.81;;;9.06;79.79
38400;BME280;24180;42.676;23.320;2024-03-02T12:27:59;94475.47;;;8.97;79.64
38400;BME280;24180;42.676;23.320;2024-03-02T12:30:27;94491.47;;;9.15;80.29
38400;BME280;24180;42.676;23.320;2024-03-02T12:32:54;94473.41;;;9.03;80.02
38400;BME280;24180;42.676;23.320;2024-03-02T12:35:20;94491.38;;;9.12;80.34
38400;BME280;24180;42.676;23.320;2024-03-02T12:37:49;94484.16;;;9.17;79.97
38400;BME280;24180;42.676;23.320;2024-03-02T12:40:16;94487.28;;;9.23;79.80
38400;BME280;24180;42.676;23.320;2024-03-02T12:42:44;94497.16;;;9.33;79.93
38400;BME280;24180;42.676;23.320;2024-03-02T12:45:10;94470.81;;;9.27;80.24
38400;BME280;24180;42.676;23.320;2024-03-02T12:47:36;94484.38;;;9.37;79.70
38400;BME280;24180;42.676;23.320;2024-03-02T12:50:03;94494.03;;;9.27;78.00
38400;BME280;24180;42.676;23.320;2024-03-02T12:52:30;94495.34;;;9.21;79.04
38400;BME280;24180;42.676;23.320;2024-03-02T12:54:56;94489.88;;;9.23;76.85
38400;BME280;24180;42.676;23.320;2024-03-02T12:57:31;94500.84;;;9.20;77.84
38400;BME280;24180;42.676;23.320;2024-03-02T13:00:05;94476.09;;;9.19;78.94
38400;BME280;24180;42.676;23.320;2024-03-02T13:02:40;94480.84;;;9.17;79.37
38400;BME280;24180;42.676;23.320;2024-03-02T13:05:07;94500.72;;;9.28;78.38
38400;BME280;24180;42.676;23.320;2024-03-02T13:07:39;94487.50;;;9.30;77.35
38400;BME280;24180;42.676;23.320;2024-03-02T13:10:06;94494.91;;;9.31;78.10